Terminal Aerodrome Forecast
Issued by NWS Amarillo, TX

Home | Current Version | Previous Version | Text Only | Print | Product List | Glossary On
Versions: 1 2 3 4 5 6 7 8 9 10 11 12 13 14
167
FTUS44 KAMA 270520
TAFDHT
TAF
KDHT 270520Z 2706/2806 34011KT P6SM SKC
     FM271600 25011KT P6SM SCT110
     FM272300 34011KT P6SM BKN120=

USA.gov is the U.S. government's official web portal to all federal, state and local government web resources and services.